Time;durP1;ratioP1;P1;durP2;ratioP2;P2;SDS_P1;SDS_P2;PMS_P1;PMS_P2;Temp;Humidity;BMP_temperature;BMP_pressure;BME280_temperature;BME280_humidity;BME280_pressure;Samples;Min_cycle;Max_cycle;Signal;HPM_P1;HPM_P2
2023/04/13 00:00:14;;;;;;;0.70;0.70;;;;;;;;;;5092521;28;20028;-86
2023/04/13 00:02:40;;;;;;;2.13;0.75;;;;;;;;;;5078455;28;20032;-86
2023/04/13 00:05:08;;;;;;;0.73;0.68;;;;;;;;;;5078489;28;20052;-86
2023/04/13 00:07:33;;;;;;;0.70;0.70;;;;;;;;;;5078811;28;20372;-85
2023/04/13 00:10:02;;;;;;;0.98;0.70;;;;;;;;;;5078673;28;20105;-86
2023/04/13 00:12:27;;;;;;;0.68;0.68;;;;;;;;;;5061686;28;20067;-86
2023/04/13 00:14:53;;;;;;;1.10;0.60;;;;;;;;;;5078162;28;20085;-86
2023/04/13 00:17:18;;;;;;;0.98;0.65;;;;;;;;;;5077946;28;20028;-86
2023/04/13 00:19:46;;;;;;;1.13;0.75;;;;;;;;;;5078449;28;20051;-85
2023/04/13 00:22:12;;;;;;;0.85;0.60;;;;;;;;;;5096199;28;20107;-86
2023/04/13 00:24:38;;;;;;;1.38;0.80;;;;;;;;;;5095978;28;20032;-86
2023/04/13 00:27:03;;;;;;;0.60;0.55;;;;;;;;;;5077950;28;20466;-86
2023/04/13 00:29:29;;;;;;;1.95;0.73;;;;;;;;;;5077759;28;20107;-86
2023/04/13 00:31:54;;;;;;;1.42;0.80;;;;;;;;;;5077788;28;20028;-87
2023/04/13 00:34:20;;;;;;;0.60;0.60;;;;;;;;;;5096157;28;20142;-86
2023/04/13 00:36:45;;;;;;;1.13;1.00;;;;;;;;;;5095509;28;20426;-86
2023/04/13 00:39:12;;;;;;;0.95;0.55;;;;;;;;;;5096225;28;20121;-86
2023/04/13 00:41:37;;;;;;;1.70;0.90;;;;;;;;;;5078104;28;20482;-86
2023/04/13 00:44:03;;;;;;;1.52;0.70;;;;;;;;;;5095668;28;20028;-86
2023/04/13 00:46:28;;;;;;;0.60;0.60;;;;;;;;;;5096039;28;20474;-86
2023/04/13 00:48:54;;;;;;;0.65;0.65;;;;;;;;;;5077971;28;20074;-86
2023/04/13 00:51:20;;;;;;;0.60;0.60;;;;;;;;;;5095593;28;20028;-85
2023/04/13 00:53:48;;;;;;;0.50;0.50;;;;;;;;;;5077715;28;20028;-86
2023/04/13 00:56:14;;;;;;;1.08;0.70;;;;;;;;;;5078500;28;20024;-86
2023/04/13 00:58:39;;;;;;;1.52;0.90;;;;;;;;;;5060690;28;20466;-85
2023/04/13 01:01:05;;;;;;;0.68;0.40;;;;;;;;;;5077720;28;20078;-86
2023/04/13 01:03:30;;;;;;;1.23;0.80;;;;;;;;;;5077583;28;20074;-84
2023/04/13 01:06:16;;;;;;;3.78;0.90;;;;;;;;;;5077176;28;20055;-86
2023/04/13 01:08:57;;;;;;;0.88;0.70;;;;;;;;;;5077969;28;20028;-86
2023/04/13 01:11:41;;;;;;;0.93;0.73;;;;;;;;;;5060333;28;20051;-87
2023/04/13 01:14:22;;;;;;;0.75;0.57;;;;;;;;;;5077718;28;20375;-87
2023/04/13 01:16:55;;;;;;;0.77;0.60;;;;;;;;;;5095482;28;20027;-87
2023/04/13 01:19:50;;;;;;;4.05;1.00;;;;;;;;;;5060800;28;20032;-87
2023/04/13 01:22:18;;;;;;;0.63;0.60;;;;;;;;;;5053246;28;20036;-87
2023/04/13 01:25:29;;;;;;;1.17;0.85;;;;;;;;;;5077042;28;20055;-87
2023/04/13 01:28:02;;;;;;;1.13;0.70;;;;;;;;;;5069787;28;20098;-87
2023/04/13 01:33:50;;;;;;;0.50;0.50;;;;;;;;;;5084344;28;20478;-87
2023/04/13 01:36:16;;;;;;;0.40;0.40;;;;;;;;;;5060182;28;20020;-87
2023/04/13 01:38:42;;;;;;;2.00;1.08;;;;;;;;;;5077023;28;20032;-87
2023/04/13 01:41:08;;;;;;;0.50;0.50;;;;;;;;;;5095284;28;20032;-87
2023/04/13 01:43:33;;;;;;;1.05;0.52;;;;;;;;;;5094977;28;20041;-87
2023/04/13 01:46:06;;;;;;;1.30;0.60;;;;;;;;;;5076581;28;20107;-87
2023/04/13 01:48:48;;;;;;;0.50;0.40;;;;;;;;;;5076824;28;20024;-86
2023/04/13 01:51:18;;;;;;;0.77;0.60;;;;;;;;;;5076465;28;20464;-84
2023/04/13 01:53:52;;;;;;;2.40;0.80;;;;;;;;;;5087063;28;20024;-87
2023/04/13 01:56:18;;;;;;;0.75;0.57;;;;;;;;;;5076886;28;20031;-87
2023/04/13 01:58:48;;;;;;;0.52;0.50;;;;;;;;;;5076444;28;20479;-87
2023/04/13 02:01:14;;;;;;;0.15;0.15;;;;;;;;;;5076814;28;20028;-87
2023/04/13 02:03:42;;;;;;;0.95;0.60;;;;;;;;;;5078274;28;20055;-87
2023/04/13 02:06:08;;;;;;;1.00;0.50;;;;;;;;;;5094574;28;20158;-87
2023/04/13 02:08:35;;;;;;;1.17;0.63;;;;;;;;;;5093321;28;20054;-87
2023/04/13 02:11:02;;;;;;;0.93;0.60;;;;;;;;;;5093433;28;20032;-86
2023/04/13 02:13:30;;;;;;;0.50;0.50;;;;;;;;;;5095259;28;20455;-87
2023/04/13 02:15:56;;;;;;;0.40;0.40;;;;;;;;;;5076878;28;20024;-86
2023/04/13 02:18:22;;;;;;;0.90;0.52;;;;;;;;;;5092880;28;20089;-86
2023/04/13 02:21:02;;;;;;;1.35;0.50;;;;;;;;;;5094432;28;20335;-86
2023/04/13 02:23:29;;;;;;;6.43;0.80;;;;;;;;;;5092522;28;20051;-86
2023/04/13 02:25:54;;;;;;;0.50;0.50;;;;;;;;;;5092953;28;20500;-85
2023/04/13 02:28:20;;;;;;;0.80;0.50;;;;;;;;;;5093958;28;20114;-85
2023/04/13 02:30:45;;;;;;;2.22;1.02;;;;;;;;;;5092660;28;20097;-86
2023/04/13 02:33:11;;;;;;;2.15;0.70;;;;;;;;;;5075768;28;20177;-85
2023/04/13 02:35:37;;;;;;;0.60;0.50;;;;;;;;;;5093906;28;20382;-85
2023/04/13 02:38:06;;;;;;;1.77;0.65;;;;;;;;;;5093936;28;20097;-87
2023/04/13 02:40:31;;;;;;;1.17;0.70;;;;;;;;;;5093592;28;20028;-86
2023/04/13 02:42:58;;;;;;;0.55;0.52;;;;;;;;;;5092934;28;20069;-86
2023/04/13 02:45:24;;;;;;;1.45;0.40;;;;;;;;;;5092380;28;20035;-87
2023/04/13 02:47:49;;;;;;;0.65;0.52;;;;;;;;;;5075220;28;20028;-87
2023/04/13 02:50:16;;;;;;;1.42;0.70;;;;;;;;;;5075248;28;20028;-87
2023/04/13 02:52:42;;;;;;;0.50;0.50;;;;;;;;;;5092448;28;20036;-86
2023/04/13 02:55:08;;;;;;;1.15;0.80;;;;;;;;;;5093396;28;20031;-87
2023/04/13 02:57:33;;;;;;;0.65;0.65;;;;;;;;;;5093809;28;20032;-87
2023/04/13 02:59:59;;;;;;;1.40;0.60;;;;;;;;;;5092474;28;20039;-86
2023/04/13 03:02:28;;;;;;;0.55;0.40;;;;;;;;;;5075589;28;20043;-86
2023/04/13 03:04:54;;;;;;;0.40;0.40;;;;;;;;;;5093158;28;20052;-86
2023/04/13 03:07:20;;;;;;;1.00;0.40;;;;;;;;;;5093417;28;20047;-88
2023/04/13 03:09:46;;;;;;;1.10;0.60;;;;;;;;;;5074900;28;20024;-87
2023/04/13 03:12:11;;;;;;;1.83;0.57;;;;;;;;;;5091899;28;20032;-87
2023/04/13 03:14:36;;;;;;;1.65;0.47;;;;;;;;;;5093330;28;20032;-87
2023/04/13 03:17:03;;;;;;;1.38;0.50;;;;;;;;;;5093333;28;20360;-86
2023/04/13 03:19:29;;;;;;;1.17;0.55;;;;;;;;;;5091886;28;20020;-86
2023/04/13 03:21:55;;;;;;;0.55;0.40;;;;;;;;;;5091625;28;20024;-87
2023/04/13 03:24:21;;;;;;;0.68;0.68;;;;;;;;;;5093189;28;20032;-87
2023/04/13 03:26:46;;;;;;;0.52;0.52;;;;;;;;;;5091784;28;20056;-87
2023/04/13 03:29:11;;;;;;;1.10;0.70;;;;;;;;;;5091782;28;20089;-87
2023/04/13 03:31:37;;;;;;;1.27;0.47;;;;;;;;;;5091707;28;20372;-87
2023/04/13 03:34:02;;;;;;;1.25;0.50;;;;;;;;;;5093056;28;20101;-87
2023/04/13 03:36:28;;;;;;;0.75;0.63;;;;;;;;;;5091538;28;20034;-88
2023/04/13 03:38:54;;;;;;;0.63;0.45;;;;;;;;;;5074624;28;20032;-88
2023/04/13 03:41:19;;;;;;;1.48;0.85;;;;;;;;;;5091605;28;20050;-89
2023/04/13 03:43:45;;;;;;;1.00;0.55;;;;;;;;;;5093095;28;20024;-89
2023/04/13 03:46:11;;;;;;;2.28;0.60;;;;;;;;;;5074748;28;20040;-89
2023/04/13 03:48:39;;;;;;;2.67;0.80;;;;;;;;;;5075343;28;20043;-90
2023/04/13 03:51:05;;;;;;;0.90;0.70;;;;;;;;;;5091979;28;20028;-89
2023/04/13 03:53:30;;;;;;;0.70;0.63;;;;;;;;;;5074741;28;20101;-87
2023/04/13 03:55:56;;;;;;;2.25;0.60;;;;;;;;;;5091434;28;20448;-89
2023/04/13 03:58:21;;;;;;;2.00;1.02;;;;;;;;;;5091702;28;20028;-89
2023/04/13 04:00:47;;;;;;;1.67;0.57;;;;;;;;;;5091545;28;20036;-90
2023/04/13 04:03:13;;;;;;;1.98;0.68;;;;;;;;;;5092356;28;20482;-88
2023/04/13 04:05:39;;;;;;;3.50;0.80;;;;;;;;;;5091849;28;20136;-88
2023/04/13 04:08:04;;;;;;;1.23;0.73;;;;;;;;;;5075230;28;20032;-88
2023/04/13 04:10:30;;;;;;;0.60;0.60;;;;;;;;;;5075142;28;20024;-87
2023/04/13 04:12:56;;;;;;;0.80;0.60;;;;;;;;;;5093233;28;20059;-87
2023/04/13 04:15:21;;;;;;;0.55;0.55;;;;;;;;;;5093454;28;20024;-86
2023/04/13 04:17:47;;;;;;;1.10;0.70;;;;;;;;;;5093363;28;20085;-85
2023/04/13 04:20:13;;;;;;;5.43;1.05;;;;;;;;;;5092183;28;20077;-86
2023/04/13 04:22:38;;;;;;;2.97;1.10;;;;;;;;;;5075327;28;20470;-86
2023/04/13 04:25:04;;;;;;;11.73;1.13;;;;;;;;;;5093002;28;20031;-84
2023/04/13 04:27:30;;;;;;;2.92;1.15;;;;;;;;;;5091717;28;20482;-85
2023/04/13 04:29:58;;;;;;;5.72;1.00;;;;;;;;;;5093043;28;20028;-85
2023/04/13 04:32:24;;;;;;;4.35;1.33;;;;;;;;;;5075337;28;20097;-84
2023/04/13 04:34:51;;;;;;;4.55;1.55;;;;;;;;;;5075360;28;20028;-85
2023/04/13 04:37:20;;;;;;;7.40;1.70;;;;;;;;;;5091680;28;20032;-85
2023/04/13 04:39:46;;;;;;;3.70;1.77;;;;;;;;;;5075325;28;20077;-86
2023/04/13 04:42:13;;;;;;;7.30;2.05;;;;;;;;;;5092813;28;20032;-85
2023/04/13 04:44:39;;;;;;;4.40;1.25;;;;;;;;;;5091717;28;20027;-84
2023/04/13 04:47:04;;;;;;;4.78;1.30;;;;;;;;;;5093365;28;20028;-87
2023/04/13 04:49:30;;;;;;;3.55;1.20;;;;;;;;;;5095806;28;20020;-90
2023/04/13 04:51:56;;;;;;;2.20;1.20;;;;;;;;;;5095560;28;20356;-87
2023/04/13 04:54:22;;;;;;;5.50;1.88;;;;;;;;;;5095852;28;20032;-87
2023/04/13 04:56:47;;;;;;;8.95;1.98;;;;;;;;;;5099103;28;20092;-89
2023/04/13 04:59:13;;;;;;;7.93;1.83;;;;;;;;;;5109984;28;20039;-86
2023/04/13 05:01:39;;;;;;;11.23;1.58;;;;;;;;;;5105340;28;20031;-91
2023/04/13 05:04:05;;;;;;;2.83;1.40;;;;;;;;;;5097215;28;20133;-89
2023/04/13 05:06:32;;;;;;;7.22;1.80;;;;;;;;;;5113128;28;20028;-89
2023/04/13 05:09:01;;;;;;;4.10;1.80;;;;;;;;;;5110092;28;20384;-90
2023/04/13 05:11:31;;;;;;;4.97;1.40;;;;;;;;;;5098696;28;20070;-89
2023/04/13 05:13:56;;;;;;;3.10;1.45;;;;;;;;;;5096739;28;20031;-90
2023/04/13 05:16:22;;;;;;;3.75;1.33;;;;;;;;;;5096243;28;20012;-88
2023/04/13 05:18:48;;;;;;;5.90;1.20;;;;;;;;;;5095457;28;20455;-89
2023/04/13 05:21:14;;;;;;;4.43;1.48;;;;;;;;;;5094864;28;20028;-86
2023/04/13 05:23:41;;;;;;;2.10;1.23;;;;;;;;;;5096392;28;20024;-87
2023/04/13 05:26:11;;;;;;;3.80;1.88;;;;;;;;;;5094714;28;20106;-87
2023/04/13 05:28:37;;;;;;;3.72;1.20;;;;;;;;;;5096082;28;20179;-88
2023/04/13 05:31:07;;;;;;;2.40;0.90;;;;;;;;;;5077755;28;20031;-89
2023/04/13 05:33:33;;;;;;;4.85;1.48;;;;;;;;;;5077855;28;20020;-89
2023/04/13 05:35:58;;;;;;;2.30;1.20;;;;;;;;;;5094416;28;20032;-88
2023/04/13 05:38:24;;;;;;;2.58;1.08;;;;;;;;;;5094571;28;20127;-88
2023/04/13 05:40:49;;;;;;;1.50;1.10;;;;;;;;;;5077571;28;20526;-88
2023/04/13 05:43:15;;;;;;;6.60;1.05;;;;;;;;;;5094474;28;20046;-89
2023/04/13 05:45:42;;;;;;;7.88;1.20;;;;;;;;;;5077791;28;20429;-89
2023/04/13 05:48:07;;;;;;;2.05;1.00;;;;;;;;;;5094252;28;20024;-89
2023/04/13 05:50:32;;;;;;;2.63;1.40;;;;;;;;;;5095604;28;20089;-89
2023/04/13 05:52:58;;;;;;;2.40;0.90;;;;;;;;;;5095719;28;20123;-87
2023/04/13 05:55:24;;;;;;;1.27;0.73;;;;;;;;;;5095147;28;20031;-87
2023/04/13 05:57:50;;;;;;;1.48;1.00;;;;;;;;;;5076676;28;20028;-88
2023/04/13 06:00:18;;;;;;;2.25;0.80;;;;;;;;;;5095551;28;20542;-87
2023/04/13 06:02:49;;;;;;;0.98;0.80;;;;;;;;;;5095462;28;20470;-88
2023/04/13 06:05:16;;;;;;;1.88;0.85;;;;;;;;;;5061176;28;20124;-90
2023/04/13 06:07:45;;;;;;;1.48;0.90;;;;;;;;;;5060931;28;20056;-89
2023/04/13 06:10:11;;;;;;;4.43;0.98;;;;;;;;;;5095454;28;20068;-90
2023/04/13 06:12:36;;;;;;;1.73;0.80;;;;;;;;;;5094208;28;20063;-89
2023/04/13 06:15:03;;;;;;;2.65;1.23;;;;;;;;;;5093899;28;20451;-89
2023/04/13 06:17:28;;;;;;;2.28;0.95;;;;;;;;;;5077919;28;20111;-89
2023/04/13 06:19:54;;;;;;;1.63;0.90;;;;;;;;;;5095052;28;20056;-88
2023/04/13 06:22:19;;;;;;;1.75;0.68;;;;;;;;;;5095285;28;20055;-89
2023/04/13 06:24:45;;;;;;;1.55;0.80;;;;;;;;;;5094903;28;20397;-89
2023/04/13 06:27:10;;;;;;;2.30;1.13;;;;;;;;;;5095109;28;20409;-90
2023/04/13 06:29:37;;;;;;;2.78;1.00;;;;;;;;;;5076517;28;20039;-90
2023/04/13 06:32:03;;;;;;;2.00;0.82;;;;;;;;;;5094002;28;20028;-90
2023/04/13 06:34:29;;;;;;;2.03;0.70;;;;;;;;;;5077133;28;20074;-90
2023/04/13 06:36:54;;;;;;;1.77;1.05;;;;;;;;;;5093410;28;20394;-90
2023/04/13 06:39:20;;;;;;;3.25;0.75;;;;;;;;;;5093750;28;20035;-91
2023/04/13 06:41:46;;;;;;;8.68;1.15;;;;;;;;;;5093397;28;20046;-89
2023/04/13 06:44:12;;;;;;;1.30;0.85;;;;;;;;;;5093273;28;20078;-90
2023/04/13 06:46:37;;;;;;;1.42;0.90;;;;;;;;;;5094385;28;20060;-89
2023/04/13 06:49:03;;;;;;;0.98;0.60;;;;;;;;;;5094450;28;20111;-90
2023/04/13 06:51:29;;;;;;;0.82;0.73;;;;;;;;;;5094600;28;20467;-90
2023/04/13 06:53:54;;;;;;;2.58;0.98;;;;;;;;;;5094998;28;20074;-90
2023/04/13 06:56:20;;;;;;;1.25;0.93;;;;;;;;;;5094437;28;20073;-90
2023/04/13 06:58:45;;;;;;;2.03;0.73;;;;;;;;;;5093216;28;20107;-91
2023/04/13 07:01:11;;;;;;;5.60;1.10;;;;;;;;;;5093320;28;20028;-90
2023/04/13 07:03:36;;;;;;;2.67;0.88;;;;;;;;;;5059227;28;20079;-89
2023/04/13 07:06:02;;;;;;;0.80;0.70;;;;;;;;;;5094339;28;20048;-90
2023/04/13 07:08:28;;;;;;;1.70;0.82;;;;;;;;;;5094216;28;20039;-88
2023/04/13 07:10:54;;;;;;;0.82;0.63;;;;;;;;;;5092469;28;20032;-90
2023/04/13 07:13:20;;;;;;;0.75;0.70;;;;;;;;;;5093110;28;20367;-90
2023/04/13 07:15:45;;;;;;;0.82;0.77;;;;;;;;;;5093210;28;20031;-91
2023/04/13 07:18:11;;;;;;;0.85;0.68;;;;;;;;;;5093262;28;20428;-91
2023/04/13 07:20:38;;;;;;;2.35;0.90;;;;;;;;;;5092607;28;20448;-88
2023/04/13 07:23:04;;;;;;;1.00;0.70;;;;;;;;;;5076187;28;20079;-88
2023/04/13 07:25:29;;;;;;;2.78;0.65;;;;;;;;;;5075793;28;20028;-89
2023/04/13 07:27:56;;;;;;;1.40;0.70;;;;;;;;;;5075776;28;20085;-89
2023/04/13 07:30:21;;;;;;;1.42;0.73;;;;;;;;;;5095870;28;20035;-89
2023/04/13 07:32:47;;;;;;;1.73;0.80;;;;;;;;;;5076060;28;20028;-88
2023/04/13 07:35:12;;;;;;;1.75;0.63;;;;;;;;;;5093122;28;20029;-89
2023/04/13 07:37:38;;;;;;;0.90;0.60;;;;;;;;;;5094038;28;20062;-87
2023/04/13 07:40:04;;;;;;;2.10;0.82;;;;;;;;;;5093161;28;20111;-89
2023/04/13 07:42:29;;;;;;;2.53;0.82;;;;;;;;;;5093150;28;20031;-90
2023/04/13 07:44:55;;;;;;;1.95;0.77;;;;;;;;;;5096768;28;20024;-90
2023/04/13 07:47:21;;;;;;;1.00;0.63;;;;;;;;;;5101967;28;20024;-90
2023/04/13 07:49:46;;;;;;;1.15;0.60;;;;;;;;;;5097356;28;20425;-89
2023/04/13 07:52:12;;;;;;;0.70;0.60;;;;;;;;;;5076677;28;20036;-89
2023/04/13 07:54:37;;;;;;;1.80;0.80;;;;;;;;;;5093950;28;20452;-88
2023/04/13 07:57:02;;;;;;;1.15;0.60;;;;;;;;;;5092378;28;20020;-89
2023/04/13 07:59:28;;;;;;;2.28;1.02;;;;;;;;;;5093730;28;20052;-88
2023/04/13 08:01:54;;;;;;;2.40;0.98;;;;;;;;;;5092412;28;20035;-90
2023/04/13 08:04:20;;;;;;;1.58;0.93;;;;;;;;;;5094040;28;20048;-89
2023/04/13 08:06:47;;;;;;;8.52;0.77;;;;;;;;;;5096118;28;20035;-89
2023/04/13 08:09:13;;;;;;;2.05;0.90;;;;;;;;;;5095245;28;20062;-89
2023/04/13 08:11:38;;;;;;;2.10;0.88;;;;;;;;;;5094008;28;20028;-89
2023/04/13 08:14:03;;;;;;;2.25;0.90;;;;;;;;;;5075473;28;20123;-89
2023/04/13 08:16:33;;;;;;;2.38;0.68;;;;;;;;;;5094513;28;20024;-89
2023/04/13 08:19:00;;;;;;;0.85;0.73;;;;;;;;;;5099948;28;20042;-89
2023/04/13 08:21:25;;;;;;;1.67;0.88;;;;;;;;;;5099215;28;20024;-89
2023/04/13 08:23:51;;;;;;;1.85;0.65;;;;;;;;;;5096873;28;20509;-89
2023/04/13 08:26:18;;;;;;;1.63;0.93;;;;;;;;;;5096610;28;20042;-90
2023/04/13 08:28:43;;;;;;;3.92;1.00;;;;;;;;;;5099085;28;20058;-89
2023/04/13 08:31:09;;;;;;;2.38;0.70;;;;;;;;;;5096264;28;20408;-89
2023/04/13 08:33:34;;;;;;;2.00;1.00;;;;;;;;;;5096201;28;20059;-90
2023/04/13 08:36:00;;;;;;;1.80;1.10;;;;;;;;;;5095891;28;20051;-89
2023/04/13 08:38:26;;;;;;;3.10;0.90;;;;;;;;;;5097435;28;20523;-90
2023/04/13 08:40:51;;;;;;;2.15;1.08;;;;;;;;;;5080179;28;20035;-91
2023/04/13 08:43:18;;;;;;;2.03;0.82;;;;;;;;;;5080829;28;20418;-90
2023/04/13 08:45:44;;;;;;;1.92;0.85;;;;;;;;;;5078873;28;20020;-88
2023/04/13 08:48:13;;;;;;;3.78;1.02;;;;;;;;;;5078194;28;20394;-88
2023/04/13 08:50:39;;;;;;;3.70;1.17;;;;;;;;;;5093880;28;20036;-90
2023/04/13 08:53:04;;;;;;;2.83;0.93;;;;;;;;;;5095998;28;20032;-88
2023/04/13 08:55:30;;;;;;;4.55;1.30;;;;;;;;;;5095028;28;20042;-88
2023/04/13 08:57:56;;;;;;;5.18;1.65;;;;;;;;;;5096257;28;20032;-88
2023/04/13 09:00:23;;;;;;;5.28;1.10;;;;;;;;;;5094551;28;20111;-88
2023/04/13 09:02:57;;;;;;;4.28;1.42;;;;;;;;;;5096192;28;20097;-87
2023/04/13 09:05:25;;;;;;;3.25;1.30;;;;;;;;;;5094310;28;20051;-87
2023/04/13 09:07:52;;;;;;;3.22;1.10;;;;;;;;;;5094349;28;20035;-87
2023/04/13 09:10:19;;;;;;;3.95;1.52;;;;;;;;;;5078002;28;20024;-86
2023/04/13 09:12:45;;;;;;;4.53;1.27;;;;;;;;;;5096020;28;20399;-86
2023/04/13 09:15:16;;;;;;;2.88;1.00;;;;;;;;;;5077866;28;20094;-85
2023/04/13 09:17:42;;;;;;;1.70;1.23;;;;;;;;;;5094574;28;20028;-87
2023/04/13 09:20:21;;;;;;;4.80;1.48;;;;;;;;;;5094801;28;20066;-86
2023/04/13 09:22:47;;;;;;;4.38;1.40;;;;;;;;;;5094966;28;20032;-86
2023/04/13 09:25:21;;;;;;;4.65;1.33;;;;;;;;;;5077439;28;20111;-86
2023/04/13 09:27:46;;;;;;;5.15;1.55;;;;;;;;;;5095556;28;20024;-86
2023/04/13 09:30:12;;;;;;;4.18;1.33;;;;;;;;;;5082277;28;20113;-86
2023/04/13 09:32:38;;;;;;;4.32;1.30;;;;;;;;;;5073712;28;20071;-88
2023/04/13 09:35:10;;;;;;;4.63;1.48;;;;;;;;;;5075413;28;20471;-87
2023/04/13 09:37:40;;;;;;;4.75;2.13;;;;;;;;;;5073653;28;20475;-87
2023/04/13 09:40:10;;;;;;;3.03;1.30;;;;;;;;;;5057675;28;20051;-86
2023/04/13 09:42:40;;;;;;;2.70;1.40;;;;;;;;;;5073807;28;20020;-87
2023/04/13 09:45:07;;;;;;;3.10;1.65;;;;;;;;;;5073994;28;20367;-88
2023/04/13 09:47:37;;;;;;;3.00;1.38;;;;;;;;;;5073529;28;20075;-87
2023/04/13 09:50:04;;;;;;;5.32;1.35;;;;;;;;;;5056721;28;20071;-88
2023/04/13 09:52:30;;;;;;;2.60;1.10;;;;;;;;;;5073487;28;20036;-87
2023/04/13 09:54:59;;;;;;;5.15;1.63;;;;;;;;;;5073971;28;20036;-87
2023/04/13 09:57:31;;;;;;;4.93;1.30;;;;;;;;;;5073658;28;20031;-86
2023/04/13 09:59:59;;;;;;;3.17;1.35;;;;;;;;;;5073529;28;20513;-87
2023/04/13 10:02:25;;;;;;;4.53;1.48;;;;;;;;;;5073254;28;20036;-86
2023/04/13 10:04:51;;;;;;;4.63;1.67;;;;;;;;;;5073371;28;20063;-86
2023/04/13 10:07:17;;;;;;;1.83;1.05;;;;;;;;;;5073096;28;20029;-86
2023/04/13 10:09:43;;;;;;;2.42;1.23;;;;;;;;;;5073298;28;20052;-87
2023/04/13 10:12:12;;;;;;;3.30;1.10;;;;;;;;;;5073427;28;20106;-86
2023/04/13 10:14:43;;;;;;;3.10;1.40;;;;;;;;;;5073629;28;20131;-86
2023/04/13 10:17:21;;;;;;;4.30;1.40;;;;;;;;;;5073818;28;20035;-87
2023/04/13 10:19:50;;;;;;;2.20;1.25;;;;;;;;;;5061978;28;20028;-87
2023/04/13 10:22:17;;;;;;;4.53;1.20;;;;;;;;;;5093448;28;20235;-87
2023/04/13 10:24:43;;;;;;;2.45;1.27;;;;;;;;;;5094624;28;20032;-86
2023/04/13 10:27:17;;;;;;;3.13;1.50;;;;;;;;;;5093767;28;20057;-88
2023/04/13 10:29:42;;;;;;;3.15;1.30;;;;;;;;;;5088840;28;20032;-87
2023/04/13 10:32:27;;;;;;;4.53;1.40;;;;;;;;;;5073379;28;20120;-89
2023/04/13 10:34:53;;;;;;;4.03;1.35;;;;;;;;;;5099270;28;20035;-88
2023/04/13 10:37:26;;;;;;;4.75;1.38;;;;;;;;;;5093308;28;20020;-88
2023/04/13 10:40:06;;;;;;;3.47;1.13;;;;;;;;;;5089014;28;20070;-88
2023/04/13 10:42:43;;;;;;;2.47;1.23;;;;;;;;;;5073928;28;20483;-90
2023/04/13 10:45:23;;;;;;;4.32;1.20;;;;;;;;;;5080368;28;20394;-87
2023/04/13 10:47:49;;;;;;;2.40;1.05;;;;;;;;;;5093799;28;20478;-86
2023/04/13 10:50:26;;;;;;;2.35;1.13;;;;;;;;;;5084807;28;20169;-86
2023/04/13 10:53:06;;;;;;;4.57;1.50;;;;;;;;;;5072724;28;20033;-88
2023/04/13 10:55:32;;;;;;;4.28;1.52;;;;;;;;;;5073725;28;20483;-88
2023/04/13 10:57:59;;;;;;;3.67;1.52;;;;;;;;;;5078323;28;20024;-88
2023/04/13 11:00:26;;;;;;;3.75;1.52;;;;;;;;;;5082793;28;20035;-91
2023/04/13 11:02:56;;;;;;;7.68;1.60;;;;;;;;;;5076943;28;20023;-93
2023/04/13 11:05:21;;;;;;;2.92;1.20;;;;;;;;;;5068639;28;20048;-92
2023/04/13 11:07:48;;;;;;;1.95;1.20;;;;;;;;;;5073225;28;20055;-93
2023/04/13 11:10:15;;;;;;;2.13;1.08;;;;;;;;;;5074118;28;20475;-90
2023/04/13 11:12:54;;;;;;;3.42;1.08;;;;;;;;;;5073316;28;20103;-90
2023/04/13 11:15:25;;;;;;;4.70;1.17;;;;;;;;;;5073721;28;20046;-90
2023/04/13 11:18:00;;;;;;;4.57;1.50;;;;;;;;;;5073145;28;20039;-93
2023/04/13 11:20:33;;;;;;;3.53;1.30;;;;;;;;;;5056433;28;20048;-89
2023/04/13 11:23:02;;;;;;;4.77;1.60;;;;;;;;;;5074424;28;20427;-88
2023/04/13 11:25:29;;;;;;;6.53;1.42;;;;;;;;;;5073853;28;20422;-90
2023/04/13 11:27:56;;;;;;;3.58;1.30;;;;;;;;;;5055615;28;20033;-89
2023/04/13 11:30:22;;;;;;;4.57;1.17;;;;;;;;;;5072839;28;20029;-87
2023/04/13 11:32:49;;;;;;;5.55;1.40;;;;;;;;;;5074501;28;20043;-90
2023/04/13 11:35:14;;;;;;;3.33;1.10;;;;;;;;;;5073845;28;20024;-88
2023/04/13 11:37:42;;;;;;;3.17;1.60;;;;;;;;;;5071902;28;20077;-88
2023/04/13 11:40:09;;;;;;;3.65;1.35;;;;;;;;;;5072292;28;20020;-88
2023/04/13 11:42:40;;;;;;;5.47;2.00;;;;;;;;;;5073849;28;20480;-87
2023/04/13 11:45:07;;;;;;;5.78;1.50;;;;;;;;;;5073940;28;20028;-87
2023/04/13 11:47:33;;;;;;;3.65;1.35;;;;;;;;;;5073765;28;20037;-87
2023/04/13 11:50:00;;;;;;;4.82;1.25;;;;;;;;;;5075808;28;20089;-88
2023/04/13 11:52:26;;;;;;;4.70;1.40;;;;;;;;;;5086257;28;20028;-89
2023/04/13 11:54:52;;;;;;;5.13;1.33;;;;;;;;;;5078068;28;20031;-89
2023/04/13 11:57:17;;;;;;;5.45;1.90;;;;;;;;;;5079771;28;20052;-89
2023/04/13 11:59:44;;;;;;;3.40;1.23;;;;;;;;;;5098386;28;20055;-88
2023/04/13 12:02:09;;;;;;;2.90;1.30;;;;;;;;;;5079628;28;20045;-88
2023/04/13 12:04:39;;;;;;;4.15;1.50;;;;;;;;;;5079274;28;20060;-86
2023/04/13 12:07:14;;;;;;;5.20;1.30;;;;;;;;;;5080178;28;20090;-88
2023/04/13 12:09:44;;;;;;;5.15;1.25;;;;;;;;;;5066544;28;20039;-94
2023/04/13 12:12:23;;;;;;;2.97;1.33;;;;;;;;;;5061387;28;20461;-91
2023/04/13 12:14:58;;;;;;;3.80;1.27;;;;;;;;;;5075907;28;20470;-92
2023/04/13 12:17:36;;;;;;;2.63;1.33;;;;;;;;;;5080458;28;20028;-92
2023/04/13 12:20:02;;;;;;;2.47;1.38;;;;;;;;;;5060540;28;20028;-93
2023/04/13 12:22:40;;;;;;;4.30;1.48;;;;;;;;;;5042559;28;20450;-91
2023/04/13 12:25:12;;;;;;;3.92;1.60;;;;;;;;;;5065097;28;20032;-92
2023/04/13 12:27:41;;;;;;;4.13;1.40;;;;;;;;;;5082248;28;20119;-90
2023/04/13 12:30:15;;;;;;;4.43;1.60;;;;;;;;;;5060534;28;20084;-91
2023/04/13 12:32:52;;;;;;;6.38;1.58;;;;;;;;;;5080010;28;20395;-90
2023/04/13 12:35:18;;;;;;;5.28;1.63;;;;;;;;;;5052952;28;20032;-92
2023/04/13 12:37:44;;;;;;;3.10;1.20;;;;;;;;;;5039522;28;20074;-92
2023/04/13 12:40:12;;;;;;;3.03;1.50;;;;;;;;;;5071404;28;20032;-92
2023/04/13 12:42:45;;;;;;;4.57;1.50;;;;;;;;;;5097511;28;20169;-93
2023/04/13 12:45:10;;;;;;;4.30;1.65;;;;;;;;;;5079985;28;20073;-91
2023/04/13 12:47:36;;;;;;;2.47;1.20;;;;;;;;;;5097595;28;20123;-91
2023/04/13 12:50:06;;;;;;;3.50;1.67;;;;;;;;;;5079170;28;20148;-92
2023/04/13 12:52:36;;;;;;;7.53;1.50;;;;;;;;;;5062438;28;20030;-89
2023/04/13 12:55:01;;;;;;;4.35;1.33;;;;;;;;;;5079577;28;20028;-91
2023/04/13 12:57:28;;;;;;;2.80;1.27;;;;;;;;;;5062582;28;20032;-90
2023/04/13 12:59:54;;;;;;;5.47;1.40;;;;;;;;;;5062418;28;20097;-91
2023/04/13 13:02:26;;;;;;;3.28;1.52;;;;;;;;;;5047537;28;20028;-92
2023/04/13 13:04:55;;;;;;;3.33;1.45;;;;;;;;;;5083044;28;20094;-94
2023/04/13 13:07:22;;;;;;;8.77;2.00;;;;;;;;;;5050507;28;20088;-93
2023/04/13 13:09:48;;;;;;;5.28;1.58;;;;;;;;;;5046366;28;20059;-91
2023/04/13 13:12:13;;;;;;;7.63;1.52;;;;;;;;;;5062045;28;20032;-93
2023/04/13 13:14:38;;;;;;;3.92;1.30;;;;;;;;;;5062221;28;20493;-91
2023/04/13 13:17:04;;;;;;;3.03;1.23;;;;;;;;;;5078817;28;20111;-93
2023/04/13 13:19:29;;;;;;;7.20;1.77;;;;;;;;;;5062907;28;20074;-93
2023/04/13 13:21:55;;;;;;;6.53;1.63;;;;;;;;;;5046450;28;20039;-93
2023/04/13 13:24:20;;;;;;;4.22;1.55;;;;;;;;;;5078825;28;20439;-95
2023/04/13 13:26:46;;;;;;;3.97;1.45;;;;;;;;;;5078945;28;20110;-92
2023/04/13 13:29:11;;;;;;;3.38;1.30;;;;;;;;;;5058294;28;20067;-91
2023/04/13 13:31:37;;;;;;;4.97;1.10;;;;;;;;;;5058792;28;20036;-92
2023/04/13 13:34:02;;;;;;;5.53;1.63;;;;;;;;;;5081522;28;20028;-93
2023/04/13 13:36:29;;;;;;;3.85;1.65;;;;;;;;;;5085095;28;20032;-91
2023/04/13 13:38:55;;;;;;;6.38;1.33;;;;;;;;;;5079940;28;20071;-91
2023/04/13 13:41:22;;;;;;;2.20;1.30;;;;;;;;;;5045500;28;20078;-93
2023/04/13 13:43:47;;;;;;;4.63;1.55;;;;;;;;;;5079345;28;20059;-93
2023/04/13 13:46:13;;;;;;;4.03;1.90;;;;;;;;;;5063040;28;20024;-94
2023/04/13 13:48:38;;;;;;;3.72;1.40;;;;;;;;;;5063026;28;20028;-94
2023/04/13 13:51:04;;;;;;;3.45;1.30;;;;;;;;;;5079564;28;20554;-94
2023/04/13 13:53:30;;;;;;;6.30;1.58;;;;;;;;;;5079192;28;20031;-94
2023/04/13 13:55:56;;;;;;;5.90;1.75;;;;;;;;;;5096533;28;20036;-93
2023/04/13 13:58:21;;;;;;;5.20;1.65;;;;;;;;;;5078008;28;20085;-91
2023/04/13 14:00:46;;;;;;;5.28;1.80;;;;;;;;;;5061706;28;20036;-93
2023/04/13 14:03:15;;;;;;;2.67;1.30;;;;;;;;;;5095950;28;20031;-92
2023/04/13 14:05:44;;;;;;;6.57;1.45;;;;;;;;;;5077765;28;20036;-91
2023/04/13 14:08:10;;;;;;;4.75;1.60;;;;;;;;;;5063487;28;20039;-90
2023/04/13 14:10:35;;;;;;;5.88;1.73;;;;;;;;;;5079179;28;20532;-92
2023/04/13 14:13:01;;;;;;;4.88;1.67;;;;;;;;;;5062823;28;20410;-92
2023/04/13 14:15:26;;;;;;;4.93;1.30;;;;;;;;;;5078749;28;20028;-93
2023/04/13 14:17:52;;;;;;;4.30;1.52;;;;;;;;;;5062015;28;20101;-92
2023/04/13 14:20:18;;;;;;;2.05;1.20;;;;;;;;;;5094528;28;20485;-91
2023/04/13 14:22:43;;;;;;;3.17;1.52;;;;;;;;;;5061811;28;20032;-93
2023/04/13 14:25:09;;;;;;;2.72;1.30;;;;;;;;;;5061868;28;20028;-92
2023/04/13 14:27:35;;;;;;;3.22;1.20;;;;;;;;;;5062013;28;20035;-92
2023/04/13 14:30:01;;;;;;;4.75;1.50;;;;;;;;;;5068335;28;20101;-92
2023/04/13 14:32:27;;;;;;;7.00;1.30;;;;;;;;;;5080820;28;20579;-92
2023/04/13 14:34:52;;;;;;;3.10;1.45;;;;;;;;;;5061525;28;20042;-93
2023/04/13 14:37:19;;;;;;;3.70;1.35;;;;;;;;;;5064134;28;20506;-92
2023/04/13 14:39:44;;;;;;;1.98;0.98;;;;;;;;;;5078600;28;20020;-90
2023/04/13 14:42:11;;;;;;;2.45;1.30;;;;;;;;;;5065769;28;20121;-91
2023/04/13 14:44:36;;;;;;;3.70;1.17;;;;;;;;;;5072736;28;20090;-92
2023/04/13 14:47:02;;;;;;;2.78;1.20;;;;;;;;;;5069793;28;20463;-90